Latest Coastal Weather Observations for Kalumburu

IDW60701

Issued at 2:52 pm WST Saturday 28 February 2015 (issued every 10 minutes, with the page automatically refreshed every 10 minutes)

About coastal observations | Map of coastal stations | Coastal observations for WA | Marine services | Other Formats
Station Details ID: 001019 Name: KALUMBURU Lat: -14.30 Lon: 126.65 Height: 23.0 m
Data from the previous 72 hours. | See also: Recent months at Kalumburu
Date/Time
WST
Temp

°C
Wind Pressure Rain
since 9am
mm
Weather Cloud Vis
km
Sea
Height
m
Swell
Dir
 
Speed
knots
Gust
knots
hPa Trend Height
m
Period
s
Dir
28/02:30pm 32.7 NNW 7 10 1004.2 - 0.0 - - - - - - -
28/02:00pm 31.5 NW 5 9 1004.6 - 0.0 - - - - - - -
28/01:30pm 30.6 NW 9 14 1005.1 - 0.0 - - - - - - -
28/01:00pm 32.7 NW 11 16 1005.5 - 0.0 - - - - - - -
28/12:30pm 34.2 NW 5 9 1005.7 - 0.0 - - - - - - -
28/12:00pm 34.3 NW 4 8 1006.4 - 0.0 - - - - - - -
28/11:30am 33.7 WSW 4 6 1006.9 - 0.0 - - - - - - -
28/11:00am 33.4 WSW 5 7 1007.5 - 0.0 - - - - - - -
28/10:30am 32.7 W 5 7 1007.7 - 0.0 - - - - - - -
28/10:00am 32.7 WNW 6 9 1008.1 - 0.0 - - - - - - -
28/09:30am 31.8 WSW 5 8 1008.2 - 0.0 - - - - - - -
28/09:00am 30.8 SW 4 9 1008.1 - 4.4 Recent precip. - - - - - -
28/08:30am 30.0 SSW 4 6 1008.3 - 4.2 - - - - - - -
28/08:00am 29.1 SSW 4 5 1008.6 - 4.2 - - - - - - -
28/07:30am 28.1 SSW 3 5 1008.7 - 4.2 - - - - - - -
28/07:00am 26.9 CALM 0 0 1008.3 - 4.2 - - - - - - -
28/06:30am 26.2 CALM 0 0 1007.7 - 4.2 - - - - - - -
28/06:00am 25.3 CALM 0 0 1007.5 - 4.2 - - - - - - -
28/05:30am 25.5 CALM 0 0 1007.2 - 4.2 - - - - - - -
28/05:00am 25.5 CALM 0 0 1006.9 - 4.2 - - - - - - -
28/04:30am 25.8 CALM 0 0 1006.5 - 4.2 - - - - - - -
28/04:00am 25.8 CALM 0 0 1006.3 - 4.2 - - - - - - -
28/03:30am 26.0 CALM 0 0 1005.8 - 4.2 - - - - - - -
28/03:00am 25.9 CALM 0 0 1005.9 - 4.2 - - - - - - -
28/02:30am 25.7 CALM 0 0 1006.0 - 4.2 - - - - - - -
28/02:00am 25.7 CALM 0 0 1006.2 - 4.2 - - - - - - -
28/01:30am 25.5 CALM 0 0 1006.5 - 4.2 - - - - - - -
28/01:00am 25.6 CALM 0 0 1006.5 - 4.2 - - - - - - -
28/12:30am 25.7 CALM 0 0 1006.9 - 4.2 - - - - - - -
28/12:00am 26.1 CALM 0 0 1007.1 - 4.2 - - - - - - -
 
Date/Time
WST
Temp

°C
Wind Pressure Rain
since 9am
mm
Weather Cloud Vis
km
Sea
Height
m
Swell
Dir
 
Speed
knots
Gust
knots
hPa Trend Height
m
Period
s
Dir
27/11:30pm 25.9 CALM 0 0 1007.6 - 4.2 - - - - - - -
27/11:00pm 25.7 CALM 0 0 1007.9 - 4.2 - - - - - - -
27/10:30pm 25.9 CALM 0 0 1008.3 - 4.2 - - - - - - -
27/10:00pm 25.8 CALM 0 0 1008.4 - 4.2 - - - - - - -
27/09:30pm 25.8 ESE 3 4 1008.3 - 4.2 - - - - - - -
27/09:00pm 25.8 CALM 0 0 1008.2 - 4.2 - - - - - - -
27/08:30pm 25.9 E 3 4 1008.1 - 4.2 - - - - - - -
27/08:00pm 25.8 CALM 0 0 1007.7 - 4.2 - - - - - - -
27/07:30pm 25.8 CALM 0 0 1007.4 - 4.2 - - - - - - -
27/07:00pm 26.0 NE 1 3 1007.0 - 4.2 - - - - - - -
27/06:30pm 26.1 CALM 0 0 1006.7 - 4.2 - - - - - - -
27/06:00pm 26.6 CALM 0 0 1006.1 - 4.2 - - - - - - -
27/05:30pm 26.9 CALM 0 0 1005.4 - 4.2 - - - - - - -
27/05:00pm 26.9 SE 1 4 1004.7 - 4.2 - - - - - - -
27/04:30pm 26.4 CALM 0 0 1004.3 - 4.2 - - - - - - -
27/04:00pm 26.0 CALM 0 0 1004.2 - 4.2 - - - - - - -
27/03:30pm 25.7 NNE 3 4 1005.0 - 4.2 - - - - - - -
27/03:00pm 25.9 WNW 4 6 1005.5 - 4.0 Recent precip. - - - - - -
27/02:30pm 25.8 CALM 0 0 1005.4 - 3.8 - - - - - - -
27/02:00pm 25.4 CALM 0 0 1005.2 - 3.8 - - - - - - -
27/01:30pm 25.0 ENE 6 10 1006.2 - 3.4 - - - - - - -
27/01:00pm 26.5 ESE 4 6 1007.0 - 0.2 - - - - - - -
27/12:30pm 28.2 WNW 10 17 1006.2 - 0.0 - - - - - - -
27/12:00pm 31.5 S 5 8 1006.4 - 0.0 - - - - - - -
27/11:30am 31.9 S 7 10 1006.8 - 0.0 - - - - - - -
27/11:00am 32.9 SSW 5 8 1007.8 - 0.0 - - - - - - -
27/10:30am 33.1 WNW 4 7 1008.1 - 0.0 - - - - - - -
27/10:00am 32.7 W 4 6 1008.1 - 0.0 - - - - - - -
27/09:30am 32.4 WSW 3 5 1007.6 - 0.0 - - - - - - -
27/09:00am 30.6 SSE 4 5 1007.9 - 1.2 - - - - - - -
27/08:30am 30.0 SW 3 6 1008.0 - 1.2 - - - - - - -
27/08:00am 29.1 S 4 5 1007.9 - 1.2 - - - - - - -
27/07:30am 28.5 S 4 6 1007.9 - 1.2 - - - - - - -
27/07:00am 27.7 SSE 4 5 1007.8 - 1.0 - - - - - - -
27/06:30am 26.7 CALM 0 0 1007.3 - 1.0 - - - - - - -
27/06:00am 25.5 CALM 0 0 1007.0 - 1.0 - - - - - - -
27/05:30am 25.3 NNW 1 4 1006.9 - 1.0 - - - - - - -
27/05:00am 25.4 CALM 0 0 1006.6 - 1.0 - - - - - - -
27/04:30am 25.5 CALM 0 0 1006.1 - 1.0 - - - - - - -
27/04:00am 26.0 SW 2 3 1005.9 - 1.0 - - - - - - -
27/03:30am 26.1 S 4 7 1005.4 - 1.0 - - - - - - -
27/03:00am 26.2 CALM 0 0 1005.3 - 1.0 - - - - - - -
27/02:30am 26.1 CALM 0 0 1005.1 - 1.0 - - - - - - -
27/02:00am 26.3 CALM 0 0 1005.4 - 1.0 - - - - - - -
27/01:30am 26.2 CALM 0 4 1005.8 - 1.0 - - - - - - -
27/01:00am 26.3 CALM 0 0 1006.1 - 1.0 - - - - - - -
27/12:30am 26.4 CALM 0 0 1006.6 - 1.0 - - - - - - -
27/12:00am 26.5 CALM 0 0 1007.1 - 1.0 - - - - - - -
 
Date/Time
WST
Temp

°C
Wind Pressure Rain
since 9am
mm
Weather Cloud Vis
km
Sea
Height
m
Swell
Dir
 
Speed
knots
Gust
knots
hPa Trend Height
m
Period
s
Dir
26/11:30pm 26.5 CALM 0 0 1007.5 - 1.0 - - - - - - -
26/11:00pm 26.6 CALM 0 0 1008.0 - 1.0 - - - - - - -
26/10:30pm 26.6 CALM 0 0 1008.4 - 1.0 - - - - - - -
26/10:00pm 27.1 CALM 0 0 1008.4 - 1.0 - - - - - - -
26/09:30pm 27.4 CALM 0 0 1008.5 - 1.0 - - - - - - -
26/09:00pm 28.1 WNW 2 4 1008.3 - 1.0 - - - - - - -
26/08:30pm 28.5 WNW 4 6 1008.0 - 1.0 - - - - - - -
26/08:00pm 28.5 NW 4 5 1007.6 - 1.0 - - - - - - -
26/07:30pm 28.7 WNW 3 5 1007.6 - 1.0 - - - - - - -
26/07:00pm 28.7 NW 3 6 1007.3 - 1.0 - - - - - - -
26/06:30pm 29.1 NW 5 8 1006.5 - 1.0 - - - - - - -
26/06:00pm 29.5 NW 5 9 1006.1 - 1.0 - - - - - - -
26/05:30pm 29.7 WNW 6 11 1005.4 - 1.0 - - - - - - -
26/05:00pm 29.9 WNW 6 10 1004.7 - 1.0 - - - - - - -
26/04:30pm 31.7 NW 9 11 1004.4 - 0.0 - - - - - - -
26/04:00pm 32.2 NW 8 13 1004.0 - 0.0 - - - - - - -
26/03:30pm 31.6 N 10 14 1004.0 - 0.0 - - - - - - -
26/03:00pm 31.8 NNW 9 12 1003.6 - 0.0 - - - - - - -
26/02:30pm 33.0 NNW 9 14 1004.0 - 0.0 - - - - - - -
26/02:00pm 32.3 NNW 8 12 1004.6 - 0.0 - - - - - - -
26/01:30pm 32.5 NW 8 13 1005.1 - 0.0 - - - - - - -
26/01:00pm 32.2 NNW 9 13 1005.6 - 0.0 - - - - - - -
26/12:30pm 33.2 NNW 4 7 1006.1 - 0.0 - - - - - - -
26/12:00pm 32.8 NNW 4 6 1006.5 - 0.0 - - - - - - -
26/11:30am 32.8 SE 3 5 1007.0 - 0.0 - - - - - - -
26/11:00am 32.6 W 4 7 1007.3 - 0.0 - - - - - - -
26/10:30am 32.7 NNE 3 4 1007.7 - 0.0 - - - - - - -
26/10:00am 32.1 SW 3 5 1008.1 - 0.0 - - - - - - -
26/09:30am 31.6 NW 3 6 1008.3 - 0.0 - - - - - - -
26/09:00am 30.8 SSW 3 6 1008.6 - 3.0 - - - - - - -
26/08:30am 30.4 W 2 5 1008.7 - 3.0 - - - - - - -
26/08:00am 29.4 W 2 5 1008.6 - 3.0 - - - - - - -
26/07:30am 29.1 CALM 0 0 1008.5 - 3.0 - - - - - - -
26/07:00am 28.0 SSE 1 3 1008.2 - 3.0 - - - - - - -
26/06:30am 27.4 CALM 0 0 1007.8 - 3.0 - - - - - - -
26/06:00am 26.5 CALM 0 0 1007.5 - 3.0 Recent precip. - - - - - -
26/05:30am 26.4 CALM 0 0 1007.2 - 3.0 - - - - - - -
26/05:00am 26.5 S 3 4 1007.2 - 2.8 - - - - - - -
26/04:30am 26.6 CALM 0 0 1007.2 - 2.8 - - - - - - -
26/04:00am 26.6 CALM 0 0 1006.9 - 2.8 - - - - - - -
26/03:30am 26.5 CALM 0 0 1006.8 - 2.8 - - - - - - -
26/03:00am 26.7 E 2 3 1006.7 - 2.8 - - - - - - -
26/02:30am 26.7 NNE 1 3 1006.7 - 2.8 - - - - - - -
26/02:00am 26.6 CALM 0 0 1006.7 - 2.8 - - - - - - -
26/01:30am 26.7 CALM 0 0 1007.2 - 2.8 - - - - - - -
26/01:00am 26.7 CALM 0 0 1007.6 - 2.8 - - - - - - -
26/12:30am 27.0 WNW 1 3 1008.0 - 2.8 - - - - - - -
26/12:00am 27.0 CALM 0 0 1008.4 - 2.8 Rain - - - - - -
 
Date/Time
WST
Temp

°C
Wind Pressure Rain
since 9am
mm
Weather Cloud Vis
km
Sea
Height
m
Swell
Dir
 
Speed
knots
Gust
knots
hPa Trend Height
m
Period
s
Dir
25/11:30pm 27.1 WNW 3 5 1008.3 - 1.2 - - - - - - -
25/11:00pm 27.3 CALM 0 0 1008.4 - 0.4 - - - - - - -
25/10:30pm 27.0 CALM 0 0 1008.7 - 0.4 - - - - - - -
25/10:00pm 27.2 CALM 0 0 1009.0 - 0.4 - - - - - - -
25/09:30pm 27.2 CALM 0 0 1009.1 - 0.4 - - - - - - -
25/09:00pm 27.4 CALM 0 3 1009.5 - 0.4 - - - - - - -
25/08:30pm 27.5 ENE 3 5 1009.9 - 0.4 - - - - - - -
25/08:00pm 27.5 NE 3 4 1009.5 - 0.4 - - - - - - -
25/07:30pm 27.5 NNE 3 4 1009.0 - 0.4 - - - - - - -
25/07:00pm 27.6 NNE 2 5 1008.8 - 0.4 - - - - - - -
25/06:30pm 27.5 NNE 5 7 1008.1 - 0.4 - - - - - - -
25/06:00pm 28.0 N 5 7 1007.4 - 0.0 - - - - - - -
25/05:30pm 28.4 N 7 11 1007.1 - 0.0 - - - - - - -
25/05:00pm 29.0 N 7 11 1007.1 - 0.0 - - - - - - -
25/04:30pm 29.5 N 9 13 1006.2 - 0.0 - - - - - - -
25/04:00pm 30.4 N 10 14 1005.5 - 0.0 - - - - - - -
25/03:30pm 29.9 N 8 12 1005.3 - 0.0 - - - - - - -
25/03:00pm 30.5 NNW 9 14 1005.4 - 0.0 - - - - - - -

Other Formats:

Comma delimited format used in spreadsheet applications
http://www.bom.gov.au/fwo/IDW60701/IDW60701.94100.axf

JavaScript Object Notation format (JSON) in row-major order
http://www.bom.gov.au/fwo/IDW60701/IDW60701.94100.json